sensor_id;sensor_type;location;lat;lon;timestamp;P1;durP1;ratioP1;P2;durP2;ratioP2
55146;SDS011;41039;49.830;23.988;2022-07-23T00:00:06;5.67;;;4.03;;
55146;SDS011;41039;49.830;23.988;2022-07-23T00:02:32;6.82;;;4.35;;
55146;SDS011;41039;49.830;23.988;2022-07-23T00:04:57;12.87;;;4.80;;
55146;SDS011;41039;49.830;23.988;2022-07-23T00:07:23;8.13;;;4.83;;
55146;SDS011;41039;49.830;23.988;2022-07-23T00:09:48;6.43;;;4.60;;
55146;SDS011;41039;49.830;23.988;2022-07-23T00:12:13;8.95;;;5.00;;
55146;SDS011;41039;49.830;23.988;2022-07-23T00:14:38;10.23;;;4.47;;
55146;SDS011;41039;49.830;23.988;2022-07-23T00:17:04;7.35;;;5.60;;
55146;SDS011;41039;49.830;23.988;2022-07-23T00:19:29;11.23;;;6.20;;
55146;SDS011;41039;49.830;23.988;2022-07-23T00:21:54;8.15;;;5.70;;
55146;SDS011;41039;49.830;23.988;2022-07-23T00:24:19;9.48;;;5.82;;
55146;SDS011;41039;49.830;23.988;2022-07-23T00:26:45;9.63;;;5.03;;
55146;SDS011;41039;49.830;23.988;2022-07-23T00:29:10;9.57;;;5.10;;
55146;SDS011;41039;49.830;23.988;2022-07-23T00:31:35;9.27;;;5.10;;
55146;SDS011;41039;49.830;23.988;2022-07-23T00:34:00;9.82;;;5.10;;
55146;SDS011;41039;49.830;23.988;2022-07-23T00:36:26;7.05;;;4.40;;
55146;SDS011;41039;49.830;23.988;2022-07-23T00:38:51;10.32;;;4.45;;
55146;SDS011;41039;49.830;23.988;2022-07-23T00:41:17;7.87;;;4.80;;
55146;SDS011;41039;49.830;23.988;2022-07-23T00:43:42;9.07;;;4.80;;
55146;SDS011;41039;49.830;23.988;2022-07-23T00:46:07;8.17;;;4.73;;
55146;SDS011;41039;49.830;23.988;2022-07-23T00:48:32;10.50;;;4.75;;
55146;SDS011;41039;49.830;23.988;2022-07-23T00:50:58;8.17;;;4.53;;
55146;SDS011;41039;49.830;23.988;2022-07-23T00:53:23;8.02;;;4.38;;
55146;SDS011;41039;49.830;23.988;2022-07-23T00:55:48;9.90;;;4.78;;
55146;SDS011;41039;49.830;23.988;2022-07-23T00:58:14;7.45;;;4.47;;
55146;SDS011;41039;49.830;23.988;2022-07-23T01:00:39;7.55;;;4.60;;
55146;SDS011;41039;49.830;23.988;2022-07-23T01:03:04;11.07;;;5.10;;
55146;SDS011;41039;49.830;23.988;2022-07-23T01:05:30;11.45;;;4.55;;
55146;SDS011;41039;49.830;23.988;2022-07-23T01:07:55;8.05;;;4.80;;
55146;SDS011;41039;49.830;23.988;2022-07-23T01:10:20;6.93;;;4.78;;
55146;SDS011;41039;49.830;23.988;2022-07-23T01:12:58;11.32;;;4.90;;
55146;SDS011;41039;49.830;23.988;2022-07-23T01:15:23;8.23;;;5.03;;
55146;SDS011;41039;49.830;23.988;2022-07-23T01:17:49;9.63;;;5.10;;
55146;SDS011;41039;49.830;23.988;2022-07-23T01:20:14;11.35;;;5.35;;
55146;SDS011;41039;49.830;23.988;2022-07-23T01:22:40;9.57;;;5.25;;
55146;SDS011;41039;49.830;23.988;2022-07-23T01:25:05;7.10;;;4.85;;
55146;SDS011;41039;49.830;23.988;2022-07-23T01:27:31;6.88;;;4.78;;
55146;SDS011;41039;49.830;23.988;2022-07-23T01:29:56;10.60;;;5.27;;
55146;SDS011;41039;49.830;23.988;2022-07-23T01:32:22;7.82;;;5.00;;
55146;SDS011;41039;49.830;23.988;2022-07-23T01:34:47;8.15;;;5.32;;
55146;SDS011;41039;49.830;23.988;2022-07-23T01:37:12;8.70;;;4.88;;
55146;SDS011;41039;49.830;23.988;2022-07-23T01:39:38;10.93;;;5.75;;
55146;SDS011;41039;49.830;23.988;2022-07-23T01:42:03;7.13;;;4.70;;
55146;SDS011;41039;49.830;23.988;2022-07-23T01:44:28;11.75;;;4.90;;
55146;SDS011;41039;49.830;23.988;2022-07-23T01:46:53;7.85;;;5.05;;
55146;SDS011;41039;49.830;23.988;2022-07-23T01:49:20;7.20;;;4.65;;
55146;SDS011;41039;49.830;23.988;2022-07-23T01:51:45;8.57;;;5.00;;
55146;SDS011;41039;49.830;23.988;2022-07-23T01:54:26;8.07;;;5.82;;
55146;SDS011;41039;49.830;23.988;2022-07-23T01:56:51;9.95;;;5.13;;
55146;SDS011;41039;49.830;23.988;2022-07-23T01:59:16;11.43;;;5.50;;
55146;SDS011;41039;49.830;23.988;2022-07-23T02:01:42;9.87;;;5.57;;
55146;SDS011;41039;49.830;23.988;2022-07-23T02:04:07;10.47;;;5.43;;
55146;SDS011;41039;49.830;23.988;2022-07-23T02:06:32;9.30;;;5.53;;
55146;SDS011;41039;49.830;23.988;2022-07-23T02:08:57;7.43;;;4.97;;
55146;SDS011;41039;49.830;23.988;2022-07-23T02:11:22;10.30;;;5.07;;
55146;SDS011;41039;49.830;23.988;2022-07-23T02:13:48;9.23;;;5.27;;
55146;SDS011;41039;49.830;23.988;2022-07-23T02:16:13;11.43;;;4.90;;
55146;SDS011;41039;49.830;23.988;2022-07-23T02:18:38;10.43;;;4.93;;
55146;SDS011;41039;49.830;23.988;2022-07-23T02:21:03;10.27;;;5.30;;
55146;SDS011;41039;49.830;23.988;2022-07-23T02:23:28;9.63;;;5.33;;
55146;SDS011;41039;49.830;23.988;2022-07-23T02:25:54;12.20;;;5.47;;
55146;SDS011;41039;49.830;23.988;2022-07-23T02:28:19;8.23;;;4.87;;
55146;SDS011;41039;49.830;23.988;2022-07-23T02:30:44;8.60;;;5.20;;
55146;SDS011;41039;49.830;23.988;2022-07-23T02:33:09;7.37;;;4.53;;
55146;SDS011;41039;49.830;23.988;2022-07-23T02:35:34;8.98;;;5.60;;
55146;SDS011;41039;49.830;23.988;2022-07-23T02:38:00;8.70;;;5.15;;
55146;SDS011;41039;49.830;23.988;2022-07-23T02:40:25;8.43;;;5.23;;
55146;SDS011;41039;49.830;23.988;2022-07-23T02:42:50;8.17;;;5.07;;
55146;SDS011;41039;49.830;23.988;2022-07-23T02:45:15;9.60;;;5.07;;
55146;SDS011;41039;49.830;23.988;2022-07-23T02:47:41;10.70;;;5.47;;
55146;SDS011;41039;49.830;23.988;2022-07-23T02:50:06;10.77;;;5.50;;
55146;SDS011;41039;49.830;23.988;2022-07-23T02:52:32;8.02;;;4.90;;
55146;SDS011;41039;49.830;23.988;2022-07-23T02:54:57;7.63;;;5.43;;
55146;SDS011;41039;49.830;23.988;2022-07-23T02:57:22;10.63;;;5.87;;
55146;SDS011;41039;49.830;23.988;2022-07-23T02:59:47;9.33;;;5.70;;
55146;SDS011;41039;49.830;23.988;2022-07-23T03:02:12;8.67;;;5.60;;
55146;SDS011;41039;49.830;23.988;2022-07-23T03:04:38;8.43;;;5.30;;
55146;SDS011;41039;49.830;23.988;2022-07-23T03:07:03;9.80;;;5.85;;
55146;SDS011;41039;49.830;23.988;2022-07-23T03:09:28;9.35;;;5.45;;
55146;SDS011;41039;49.830;23.988;2022-07-23T03:11:53;10.98;;;5.70;;
55146;SDS011;41039;49.830;23.988;2022-07-23T03:14:19;10.37;;;6.07;;
55146;SDS011;41039;49.830;23.988;2022-07-23T03:16:44;12.38;;;5.82;;
55146;SDS011;41039;49.830;23.988;2022-07-23T03:19:09;10.32;;;5.85;;
55146;SDS011;41039;49.830;23.988;2022-07-23T03:21:35;10.85;;;6.05;;
55146;SDS011;41039;49.830;23.988;2022-07-23T03:24:03;7.97;;;6.10;;
55146;SDS011;41039;49.830;23.988;2022-07-23T03:26:29;11.77;;;6.10;;
55146;SDS011;41039;49.830;23.988;2022-07-23T03:28:54;7.40;;;5.80;;
55146;SDS011;41039;49.830;23.988;2022-07-23T03:31:19;10.63;;;6.65;;
55146;SDS011;41039;49.830;23.988;2022-07-23T03:33:45;12.23;;;6.93;;
55146;SDS011;41039;49.830;23.988;2022-07-23T03:36:10;10.23;;;6.60;;
55146;SDS011;41039;49.830;23.988;2022-07-23T03:38:35;11.10;;;7.47;;
55146;SDS011;41039;49.830;23.988;2022-07-23T03:41:00;13.70;;;7.53;;
55146;SDS011;41039;49.830;23.988;2022-07-23T03:43:25;14.23;;;7.38;;
55146;SDS011;41039;49.830;23.988;2022-07-23T03:45:51;13.52;;;8.02;;
55146;SDS011;41039;49.830;23.988;2022-07-23T03:48:16;16.63;;;8.68;;
55146;SDS011;41039;49.830;23.988;2022-07-23T03:50:41;20.27;;;10.13;;
55146;SDS011;41039;49.830;23.988;2022-07-23T03:53:06;19.77;;;9.37;;
55146;SDS011;41039;49.830;23.988;2022-07-23T03:55:32;16.70;;;9.87;;
55146;SDS011;41039;49.830;23.988;2022-07-23T03:57:57;16.38;;;9.15;;
55146;SDS011;41039;49.830;23.988;2022-07-23T04:00:22;18.05;;;9.85;;
55146;SDS011;41039;49.830;23.988;2022-07-23T04:02:47;12.80;;;8.60;;
55146;SDS011;41039;49.830;23.988;2022-07-23T04:05:13;17.93;;;8.90;;
55146;SDS011;41039;49.830;23.988;2022-07-23T04:07:38;16.70;;;8.50;;
55146;SDS011;41039;49.830;23.988;2022-07-23T04:10:03;15.20;;;8.85;;
55146;SDS011;41039;49.830;23.988;2022-07-23T04:12:28;12.07;;;7.95;;
55146;SDS011;41039;49.830;23.988;2022-07-23T04:14:54;11.57;;;7.97;;
55146;SDS011;41039;49.830;23.988;2022-07-23T04:17:19;13.60;;;7.90;;
55146;SDS011;41039;49.830;23.988;2022-07-23T04:19:44;13.73;;;8.43;;
55146;SDS011;41039;49.830;23.988;2022-07-23T04:22:10;16.38;;;9.07;;
55146;SDS011;41039;49.830;23.988;2022-07-23T04:24:35;15.70;;;8.13;;
55146;SDS011;41039;49.830;23.988;2022-07-23T04:27:01;16.25;;;8.55;;
55146;SDS011;41039;49.830;23.988;2022-07-23T04:29:26;15.07;;;8.48;;
55146;SDS011;41039;49.830;23.988;2022-07-23T04:31:51;17.80;;;10.47;;
55146;SDS011;41039;49.830;23.988;2022-07-23T04:34:16;18.80;;;12.55;;
55146;SDS011;41039;49.830;23.988;2022-07-23T04:36:42;23.27;;;11.85;;
55146;SDS011;41039;49.830;23.988;2022-07-23T04:39:07;22.63;;;13.23;;
55146;SDS011;41039;49.830;23.988;2022-07-23T04:41:32;17.38;;;11.48;;
55146;SDS011;41039;49.830;23.988;2022-07-23T04:43:59;15.23;;;10.32;;
55146;SDS011;41039;49.830;23.988;2022-07-23T04:46:24;17.65;;;9.95;;
55146;SDS011;41039;49.830;23.988;2022-07-23T04:48:49;14.97;;;10.50;;
55146;SDS011;41039;49.830;23.988;2022-07-23T04:51:14;14.00;;;9.95;;
55146;SDS011;41039;49.830;23.988;2022-07-23T04:53:40;15.67;;;10.47;;
55146;SDS011;41039;49.830;23.988;2022-07-23T04:56:05;13.50;;;9.15;;
55146;SDS011;41039;49.830;23.988;2022-07-23T04:58:30;13.45;;;8.38;;
55146;SDS011;41039;49.830;23.988;2022-07-23T05:00:56;16.13;;;8.52;;
55146;SDS011;41039;49.830;23.988;2022-07-23T05:03:22;12.50;;;8.65;;
55146;SDS011;41039;49.830;23.988;2022-07-23T05:05:48;13.70;;;9.00;;
55146;SDS011;41039;49.830;23.988;2022-07-23T05:08:13;15.93;;;9.43;;
55146;SDS011;41039;49.830;23.988;2022-07-23T05:10:38;14.02;;;8.45;;
55146;SDS011;41039;49.830;23.988;2022-07-23T05:13:03;13.10;;;7.93;;
55146;SDS011;41039;49.830;23.988;2022-07-23T05:15:29;14.63;;;8.03;;
55146;SDS011;41039;49.830;23.988;2022-07-23T05:17:55;13.82;;;8.10;;
55146;SDS011;41039;49.830;23.988;2022-07-23T05:20:20;13.27;;;7.53;;
55146;SDS011;41039;49.830;23.988;2022-07-23T05:22:45;17.90;;;7.97;;
55146;SDS011;41039;49.830;23.988;2022-07-23T05:25:10;13.63;;;8.13;;
55146;SDS011;41039;49.830;23.988;2022-07-23T05:27:36;11.73;;;7.50;;
55146;SDS011;41039;49.830;23.988;2022-07-23T05:30:02;10.20;;;8.80;;
55146;SDS011;41039;49.830;23.988;2022-07-23T05:32:27;11.65;;;7.68;;
55146;SDS011;41039;49.830;23.988;2022-07-23T05:34:52;14.63;;;8.38;;
55146;SDS011;41039;49.830;23.988;2022-07-23T05:37:18;12.02;;;8.15;;
55146;SDS011;41039;49.830;23.988;2022-07-23T05:39:43;13.32;;;7.10;;
55146;SDS011;41039;49.830;23.988;2022-07-23T05:42:08;15.60;;;8.00;;
55146;SDS011;41039;49.830;23.988;2022-07-23T05:44:34;16.00;;;7.60;;
55146;SDS011;41039;49.830;23.988;2022-07-23T05:46:59;12.02;;;7.20;;
55146;SDS011;41039;49.830;23.988;2022-07-23T05:49:24;13.50;;;7.90;;
55146;SDS011;41039;49.830;23.988;2022-07-23T05:51:50;12.85;;;7.40;;
55146;SDS011;41039;49.830;23.988;2022-07-23T05:54:15;11.23;;;7.93;;
55146;SDS011;41039;49.830;23.988;2022-07-23T05:56:40;12.60;;;7.47;;
55146;SDS011;41039;49.830;23.988;2022-07-23T05:59:05;12.80;;;7.20;;
55146;SDS011;41039;49.830;23.988;2022-07-23T06:01:31;12.60;;;7.07;;
55146;SDS011;41039;49.830;23.988;2022-07-23T06:03:56;10.45;;;6.93;;
55146;SDS011;41039;49.830;23.988;2022-07-23T06:06:21;13.23;;;6.50;;
55146;SDS011;41039;49.830;23.988;2022-07-23T06:08:46;13.17;;;7.77;;
55146;SDS011;41039;49.830;23.988;2022-07-23T06:11:12;11.03;;;6.83;;
55146;SDS011;41039;49.830;23.988;2022-07-23T06:13:37;11.97;;;7.77;;
55146;SDS011;41039;49.830;23.988;2022-07-23T06:16:02;11.10;;;7.30;;
55146;SDS011;41039;49.830;23.988;2022-07-23T06:18:27;9.30;;;7.50;;
55146;SDS011;41039;49.830;23.988;2022-07-23T06:20:53;13.50;;;7.33;;
55146;SDS011;41039;49.830;23.988;2022-07-23T06:23:18;13.10;;;7.00;;
55146;SDS011;41039;49.830;23.988;2022-07-23T06:25:43;11.10;;;6.63;;
55146;SDS011;41039;49.830;23.988;2022-07-23T06:28:08;11.20;;;7.27;;
55146;SDS011;41039;49.830;23.988;2022-07-23T06:30:33;13.93;;;7.35;;
55146;SDS011;41039;49.830;23.988;2022-07-23T06:32:59;8.93;;;7.70;;
55146;SDS011;41039;49.830;23.988;2022-07-23T06:35:24;9.53;;;7.37;;
55146;SDS011;41039;49.830;23.988;2022-07-23T06:37:50;15.40;;;8.20;;
55146;SDS011;41039;49.830;23.988;2022-07-23T06:40:15;12.00;;;7.72;;
55146;SDS011;41039;49.830;23.988;2022-07-23T06:42:40;10.05;;;7.68;;
55146;SDS011;41039;49.830;23.988;2022-07-23T06:45:06;15.27;;;8.15;;
55146;SDS011;41039;49.830;23.988;2022-07-23T06:47:31;11.52;;;7.20;;
55146;SDS011;41039;49.830;23.988;2022-07-23T06:49:57;14.02;;;8.55;;
55146;SDS011;41039;49.830;23.988;2022-07-23T06:52:22;9.37;;;8.17;;
55146;SDS011;41039;49.830;23.988;2022-07-23T06:54:47;17.10;;;9.40;;
55146;SDS011;41039;49.830;23.988;2022-07-23T06:57:12;13.50;;;7.80;;
55146;SDS011;41039;49.830;23.988;2022-07-23T06:59:37;18.83;;;8.52;;
55146;SDS011;41039;49.830;23.988;2022-07-23T07:02:05;16.67;;;8.20;;
55146;SDS011;41039;49.830;23.988;2022-07-23T07:04:31;13.40;;;8.23;;
55146;SDS011;41039;49.830;23.988;2022-07-23T07:06:56;12.55;;;7.88;;
55146;SDS011;41039;49.830;23.988;2022-07-23T07:09:22;15.00;;;8.37;;
55146;SDS011;41039;49.830;23.988;2022-07-23T07:11:47;11.53;;;7.80;;
55146;SDS011;41039;49.830;23.988;2022-07-23T07:14:12;15.85;;;8.52;;
55146;SDS011;41039;49.830;23.988;2022-07-23T07:16:37;14.20;;;7.83;;
55146;SDS011;41039;49.830;23.988;2022-07-23T07:19:03;17.27;;;9.07;;
55146;SDS011;41039;49.830;23.988;2022-07-23T07:21:28;20.77;;;8.93;;
55146;SDS011;41039;49.830;23.988;2022-07-23T07:23:53;16.35;;;8.93;;
55146;SDS011;41039;49.830;23.988;2022-07-23T07:26:18;13.88;;;8.63;;
55146;SDS011;41039;49.830;23.988;2022-07-23T07:28:44;10.48;;;7.85;;
55146;SDS011;41039;49.830;23.988;2022-07-23T07:31:09;13.77;;;8.70;;
55146;SDS011;41039;49.830;23.988;2022-07-23T07:33:34;19.13;;;9.02;;
55146;SDS011;41039;49.830;23.988;2022-07-23T07:35:59;13.27;;;7.83;;
55146;SDS011;41039;49.830;23.988;2022-07-23T07:38:25;12.30;;;8.18;;
55146;SDS011;41039;49.830;23.988;2022-07-23T07:40:50;13.97;;;8.83;;
55146;SDS011;41039;49.830;23.988;2022-07-23T07:43:16;15.13;;;9.00;;
55146;SDS011;41039;49.830;23.988;2022-07-23T07:45:41;12.03;;;7.93;;
55146;SDS011;41039;49.830;23.988;2022-07-23T07:48:06;10.88;;;8.00;;
55146;SDS011;41039;49.830;23.988;2022-07-23T07:50:31;16.98;;;10.20;;
55146;SDS011;41039;49.830;23.988;2022-07-23T07:52:57;17.33;;;9.03;;
55146;SDS011;41039;49.830;23.988;2022-07-23T07:55:22;22.37;;;8.70;;
55146;SDS011;41039;49.830;23.988;2022-07-23T07:57:47;17.63;;;8.07;;
55146;SDS011;41039;49.830;23.988;2022-07-23T08:00:12;12.13;;;8.43;;
55146;SDS011;41039;49.830;23.988;2022-07-23T08:02:44;14.30;;;7.32;;
55146;SDS011;41039;49.830;23.988;2022-07-23T08:05:10;12.57;;;7.93;;
55146;SDS011;41039;49.830;23.988;2022-07-23T08:07:35;9.40;;;7.60;;
55146;SDS011;41039;49.830;23.988;2022-07-23T08:10:02;12.02;;;7.10;;
55146;SDS011;41039;49.830;23.988;2022-07-23T08:12:27;15.30;;;8.10;;
55146;SDS011;41039;49.830;23.988;2022-07-23T08:14:52;12.38;;;7.55;;
55146;SDS011;41039;49.830;23.988;2022-07-23T08:17:18;11.20;;;7.80;;
55146;SDS011;41039;49.830;23.988;2022-07-23T08:19:43;15.37;;;7.70;;
55146;SDS011;41039;49.830;23.988;2022-07-23T08:22:08;15.03;;;8.10;;
55146;SDS011;41039;49.830;23.988;2022-07-23T08:24:33;11.93;;;8.27;;
55146;SDS011;41039;49.830;23.988;2022-07-23T08:26:58;9.13;;;7.63;;
55146;SDS011;41039;49.830;23.988;2022-07-23T08:29:24;12.87;;;7.57;;
55146;SDS011;41039;49.830;23.988;2022-07-23T08:31:49;9.57;;;7.87;;
55146;SDS011;41039;49.830;23.988;2022-07-23T08:34:14;14.37;;;8.07;;
55146;SDS011;41039;49.830;23.988;2022-07-23T08:36:39;9.30;;;7.40;;
55146;SDS011;41039;49.830;23.988;2022-07-23T08:39:05;11.33;;;7.23;;
55146;SDS011;41039;49.830;23.988;2022-07-23T08:41:30;9.82;;;6.53;;
55146;SDS011;41039;49.830;23.988;2022-07-23T08:43:55;9.70;;;6.97;;
55146;SDS011;41039;49.830;23.988;2022-07-23T08:46:21;9.45;;;7.47;;
55146;SDS011;41039;49.830;23.988;2022-07-23T08:48:48;8.93;;;7.00;;
55146;SDS011;41039;49.830;23.988;2022-07-23T08:51:13;12.85;;;6.80;;
55146;SDS011;41039;49.830;23.988;2022-07-23T08:53:39;7.57;;;6.75;;
55146;SDS011;41039;49.830;23.988;2022-07-23T08:56:06;12.15;;;7.25;;
55146;SDS011;41039;49.830;23.988;2022-07-23T08:58:31;10.80;;;6.68;;
55146;SDS011;41039;49.830;23.988;2022-07-23T09:00:56;8.48;;;6.75;;
55146;SDS011;41039;49.830;23.988;2022-07-23T09:03:23;7.35;;;6.57;;
55146;SDS011;41039;49.830;23.988;2022-07-23T09:05:49;9.13;;;6.90;;
55146;SDS011;41039;49.830;23.988;2022-07-23T09:08:18;14.52;;;7.20;;
55146;SDS011;41039;49.830;23.988;2022-07-23T09:13:29;8.13;;;7.00;;
55146;SDS011;41039;49.830;23.988;2022-07-23T09:15:55;9.02;;;6.68;;
55146;SDS011;41039;49.830;23.988;2022-07-23T09:21:11;7.07;;;6.38;;
55146;SDS011;41039;49.830;23.988;2022-07-23T09:23:38;10.23;;;6.38;;
55146;SDS011;41039;49.830;23.988;2022-07-23T09:26:10;7.97;;;6.70;;
55146;SDS011;41039;49.830;23.988;2022-07-23T09:28:51;8.05;;;6.40;;
55146;SDS011;41039;49.830;23.988;2022-07-23T09:31:18;12.52;;;7.15;;
55146;SDS011;41039;49.830;23.988;2022-07-23T09:33:43;9.65;;;6.70;;
55146;SDS011;41039;49.830;23.988;2022-07-23T09:36:08;7.70;;;6.57;;
55146;SDS011;41039;49.830;23.988;2022-07-23T09:38:34;10.15;;;7.15;;
55146;SDS011;41039;49.830;23.988;2022-07-23T09:41:12;9.30;;;6.80;;
55146;SDS011;41039;49.830;23.988;2022-07-23T09:43:38;10.32;;;6.05;;
55146;SDS011;41039;49.830;23.988;2022-07-23T09:48:48;7.95;;;6.43;;
55146;SDS011;41039;49.830;23.988;2022-07-23T09:51:13;11.80;;;6.55;;
55146;SDS011;41039;49.830;23.988;2022-07-23T09:53:42;10.15;;;6.55;;
55146;SDS011;41039;49.830;23.988;2022-07-23T09:56:07;7.00;;;6.10;;
55146;SDS011;41039;49.830;23.988;2022-07-23T09:58:34;7.82;;;6.40;;
55146;SDS011;41039;49.830;23.988;2022-07-23T10:01:08;10.27;;;6.25;;
55146;SDS011;41039;49.830;23.988;2022-07-23T10:03:33;13.88;;;7.45;;
55146;SDS011;41039;49.830;23.988;2022-07-23T10:05:59;10.07;;;6.90;;
55146;SDS011;41039;49.830;23.988;2022-07-23T10:08:24;8.23;;;6.50;;
55146;SDS011;41039;49.830;23.988;2022-07-23T10:10:50;9.90;;;6.80;;
55146;SDS011;41039;49.830;23.988;2022-07-23T10:13:15;9.25;;;7.03;;
55146;SDS011;41039;49.830;23.988;2022-07-23T10:16:03;13.93;;;7.85;;
55146;SDS011;41039;49.830;23.988;2022-07-23T10:18:29;10.93;;;6.85;;
55146;SDS011;41039;49.830;23.988;2022-07-23T10:20:55;9.35;;;7.43;;
55146;SDS011;41039;49.830;23.988;2022-07-23T10:28:51;9.77;;;5.78;;
55146;SDS011;41039;49.830;23.988;2022-07-23T10:37:34;8.63;;;6.38;;
55146;SDS011;41039;49.830;23.988;2022-07-23T10:39:29;11.48;;;7.15;;
55146;SDS011;41039;49.830;23.988;2022-07-23T10:42:11;7.55;;;6.85;;
55146;SDS011;41039;49.830;23.988;2022-07-23T10:44:38;9.77;;;7.00;;
55146;SDS011;41039;49.830;23.988;2022-07-23T10:47:04;10.25;;;7.15;;
55146;SDS011;41039;49.830;23.988;2022-07-23T10:49:35;11.98;;;6.75;;
55146;SDS011;41039;49.830;23.988;2022-07-23T10:57:09;9.53;;;6.60;;
55146;SDS011;41039;49.830;23.988;2022-07-23T11:02:20;10.32;;;6.55;;
55146;SDS011;41039;49.830;23.988;2022-07-23T11:04:52;8.52;;;6.22;;
55146;SDS011;41039;49.830;23.988;2022-07-23T11:07:18;7.93;;;6.38;;
55146;SDS011;41039;49.830;23.988;2022-07-23T11:09:44;12.23;;;6.57;;
55146;SDS011;41039;49.830;23.988;2022-07-23T11:15:21;13.35;;;7.15;;
55146;SDS011;41039;49.830;23.988;2022-07-23T11:17:28;7.93;;;6.72;;
55146;SDS011;41039;49.830;23.988;2022-07-23T11:22:45;10.02;;;7.35;;
55146;SDS011;41039;49.830;23.988;2022-07-23T11:25:11;9.70;;;6.82;;
55146;SDS011;41039;49.830;23.988;2022-07-23T11:27:44;9.10;;;7.00;;
55146;SDS011;41039;49.830;23.988;2022-07-23T11:30:12;7.78;;;5.88;;
55146;SDS011;41039;49.830;23.988;2022-07-23T11:35:32;10.80;;;6.80;;
55146;SDS011;41039;49.830;23.988;2022-07-23T11:38:08;8.05;;;6.45;;
55146;SDS011;41039;49.830;23.988;2022-07-23T11:40:37;7.57;;;6.40;;
55146;SDS011;41039;49.830;23.988;2022-07-23T11:43:07;11.45;;;5.78;;
55146;SDS011;41039;49.830;23.988;2022-07-23T11:45:37;7.43;;;5.15;;
55146;SDS011;41039;49.830;23.988;2022-07-23T11:48:03;8.80;;;6.30;;
55146;SDS011;41039;49.830;23.988;2022-07-23T11:50:29;10.45;;;6.68;;
55146;SDS011;41039;49.830;23.988;2022-07-23T11:52:54;7.50;;;5.90;;
55146;SDS011;41039;49.830;23.988;2022-07-23T11:55:19;7.95;;;6.03;;
55146;SDS011;41039;49.830;23.988;2022-07-23T11:57:45;6.47;;;5.80;;
55146;SDS011;41039;49.830;23.988;2022-07-23T12:02:38;6.43;;;5.80;;
55146;SDS011;41039;49.830;23.988;2022-07-23T12:05:04;6.82;;;5.90;;
55146;SDS011;41039;49.830;23.988;2022-07-23T12:07:34;7.20;;;5.57;;
55146;SDS011;41039;49.830;23.988;2022-07-23T12:10:02;9.70;;;5.30;;
55146;SDS011;41039;49.830;23.988;2022-07-23T12:12:34;6.60;;;5.88;;
55146;SDS011;41039;49.830;23.988;2022-07-23T12:15:00;6.85;;;5.28;;
55146;SDS011;41039;49.830;23.988;2022-07-23T12:17:29;8.60;;;5.77;;
55146;SDS011;41039;49.830;23.988;2022-07-23T12:19:56;6.47;;;5.68;;
55146;SDS011;41039;49.830;23.988;2022-07-23T12:22:22;7.65;;;5.75;;
55146;SDS011;41039;49.830;23.988;2022-07-23T12:24:55;6.88;;;4.97;;
55146;SDS011;41039;49.830;23.988;2022-07-23T12:27:21;9.73;;;6.22;;
55146;SDS011;41039;49.830;23.988;2022-07-23T12:29:46;7.65;;;5.63;;
55146;SDS011;41039;49.830;23.988;2022-07-23T12:32:25;10.40;;;6.20;;
55146;SDS011;41039;49.830;23.988;2022-07-23T12:35:00;6.32;;;5.40;;
55146;SDS011;41039;49.830;23.988;2022-07-23T12:37:36;7.10;;;5.60;;
55146;SDS011;41039;49.830;23.988;2022-07-23T12:42:47;7.05;;;5.80;;
55146;SDS011;41039;49.830;23.988;2022-07-23T12:45:12;10.32;;;6.10;;
55146;SDS011;41039;49.830;23.988;2022-07-23T12:47:54;8.23;;;5.20;;
55146;SDS011;41039;49.830;23.988;2022-07-23T12:58:18;6.00;;;5.30;;
55146;SDS011;41039;49.830;23.988;2022-07-23T13:00:54;8.38;;;6.30;;
55146;SDS011;41039;49.830;23.988;2022-07-23T13:03:21;9.73;;;6.22;;
55146;SDS011;41039;49.830;23.988;2022-07-23T13:05:46;7.22;;;5.68;;
55146;SDS011;41039;49.830;23.988;2022-07-23T13:08:12;9.05;;;6.20;;
55146;SDS011;41039;49.830;23.988;2022-07-23T13:10:37;8.77;;;5.83;;
55146;SDS011;41039;49.830;23.988;2022-07-23T13:13:02;7.03;;;6.33;;
55146;SDS011;41039;49.830;23.988;2022-07-23T13:15:32;6.32;;;5.70;;
55146;SDS011;41039;49.830;23.988;2022-07-23T13:17:57;9.47;;;6.23;;
55146;SDS011;41039;49.830;23.988;2022-07-23T13:20:23;7.93;;;6.37;;
55146;SDS011;41039;49.830;23.988;2022-07-23T13:22:48;6.17;;;5.57;;
55146;SDS011;41039;49.830;23.988;2022-07-23T13:25:13;7.70;;;5.83;;
55146;SDS011;41039;49.830;23.988;2022-07-23T13:27:38;7.10;;;5.67;;
55146;SDS011;41039;49.830;23.988;2022-07-23T13:30:04;6.80;;;6.10;;
55146;SDS011;41039;49.830;23.988;2022-07-23T13:32:29;7.70;;;5.93;;
55146;SDS011;41039;49.830;23.988;2022-07-23T13:34:54;7.57;;;5.73;;
55146;SDS011;41039;49.830;23.988;2022-07-23T13:37:19;6.87;;;6.17;;
55146;SDS011;41039;49.830;23.988;2022-07-23T13:39:45;9.93;;;6.50;;
55146;SDS011;41039;49.830;23.988;2022-07-23T13:42:10;7.43;;;6.10;;
55146;SDS011;41039;49.830;23.988;2022-07-23T13:44:35;7.53;;;6.00;;
55146;SDS011;41039;49.830;23.988;2022-07-23T13:47:00;7.40;;;6.15;;
55146;SDS011;41039;49.830;23.988;2022-07-23T13:49:26;6.27;;;5.60;;
55146;SDS011;41039;49.830;23.988;2022-07-23T13:51:51;7.93;;;6.53;;
55146;SDS011;41039;49.830;23.988;2022-07-23T13:54:16;7.57;;;6.23;;
55146;SDS011;41039;49.830;23.988;2022-07-23T13:56:41;7.73;;;6.37;;
55146;SDS011;41039;49.830;23.988;2022-07-23T13:59:06;7.23;;;6.53;;
55146;SDS011;41039;49.830;23.988;2022-07-23T14:01:32;7.40;;;6.53;;
55146;SDS011;41039;49.830;23.988;2022-07-23T14:03:57;8.60;;;6.17;;
55146;SDS011;41039;49.830;23.988;2022-07-23T14:06:22;8.57;;;6.20;;
55146;SDS011;41039;49.830;23.988;2022-07-23T14:08:47;11.20;;;6.30;;
55146;SDS011;41039;49.830;23.988;2022-07-23T14:11:12;8.37;;;7.00;;
55146;SDS011;41039;49.830;23.988;2022-07-23T14:13:38;8.77;;;6.63;;
55146;SDS011;41039;49.830;23.988;2022-07-23T14:16:03;9.33;;;6.40;;
55146;SDS011;41039;49.830;23.988;2022-07-23T14:18:28;11.27;;;6.63;;
55146;SDS011;41039;49.830;23.988;2022-07-23T14:20:53;7.83;;;6.93;;
55146;SDS011;41039;49.830;23.988;2022-07-23T14:23:19;8.40;;;6.27;;
55146;SDS011;41039;49.830;23.988;2022-07-23T14:25:44;7.72;;;6.45;;
55146;SDS011;41039;49.830;23.988;2022-07-23T14:28:09;9.13;;;6.23;;
55146;SDS011;41039;49.830;23.988;2022-07-23T14:30:36;9.40;;;6.80;;
55146;SDS011;41039;49.830;23.988;2022-07-23T14:33:02;8.23;;;6.90;;
55146;SDS011;41039;49.830;23.988;2022-07-23T14:35:27;7.20;;;6.28;;
55146;SDS011;41039;49.830;23.988;2022-07-23T14:37:52;7.53;;;6.23;;
55146;SDS011;41039;49.830;23.988;2022-07-23T14:40:17;7.73;;;6.20;;
55146;SDS011;41039;49.830;23.988;2022-07-23T14:42:43;9.23;;;6.65;;
55146;SDS011;41039;49.830;23.988;2022-07-23T14:45:08;6.88;;;6.18;;
55146;SDS011;41039;49.830;23.988;2022-07-23T14:47:33;8.20;;;6.43;;
55146;SDS011;41039;49.830;23.988;2022-07-23T14:49:58;7.30;;;6.57;;
55146;SDS011;41039;49.830;23.988;2022-07-23T14:52:24;8.83;;;6.40;;
55146;SDS011;41039;49.830;23.988;2022-07-23T14:54:49;7.30;;;6.60;;
55146;SDS011;41039;49.830;23.988;2022-07-23T14:57:15;7.00;;;6.30;;
55146;SDS011;41039;49.830;23.988;2022-07-23T14:59:40;7.67;;;6.03;;
55146;SDS011;41039;49.830;23.988;2022-07-23T15:02:07;10.23;;;6.60;;
55146;SDS011;41039;49.830;23.988;2022-07-23T15:04:32;9.13;;;6.57;;
55146;SDS011;41039;49.830;23.988;2022-07-23T15:06:57;7.50;;;6.23;;
55146;SDS011;41039;49.830;23.988;2022-07-23T15:09:22;8.87;;;6.67;;